createdAt,value
2022-11-15T00:02:33.896Z,50.60
2022-11-15T00:05:26.429Z,48.97
2022-11-15T00:08:19.294Z,47.80
2022-11-15T00:11:12.451Z,48.17
2022-11-15T00:14:10.754Z,44.00
2022-11-15T00:17:03.027Z,51.80
2022-11-15T00:19:55.588Z,47.53
2022-11-15T00:22:47.531Z,46.47
2022-11-15T00:25:41.709Z,46.87
2022-11-15T00:28:33.676Z,52.90
2022-11-15T00:31:27.553Z,42.50
2022-11-15T00:34:20.783Z,44.90
2022-11-15T00:37:13.531Z,46.93
2022-11-15T00:40:08.013Z,50.67
2022-11-15T00:43:01.106Z,45.90
2022-11-15T00:45:53.433Z,45.67
2022-11-15T00:48:47.903Z,42.90
2022-11-15T00:51:40.756Z,46.97
2022-11-15T00:54:33.661Z,44.53
2022-11-15T00:57:32.467Z,39.80
2022-11-15T01:00:25.710Z,41.90
2022-11-15T01:03:18.627Z,41.63
2022-11-15T01:06:14.218Z,46.80
2022-11-15T01:09:06.539Z,46.60
2022-11-15T01:12:01.220Z,44.67
2022-11-15T01:14:55.344Z,43.97
2022-11-15T01:17:47.532Z,46.87
2022-11-15T01:20:40.782Z,48.17
2022-11-15T01:23:40.127Z,46.07
2022-11-15T01:26:32.719Z,50.87
2022-11-15T01:29:26.687Z,40.07
2022-11-15T01:32:19.655Z,45.60
2022-11-15T01:35:12.294Z,48.73
2022-11-15T01:38:04.810Z,40.33
2022-11-15T01:40:59.055Z,40.00
2022-11-15T01:43:55.341Z,45.70
2022-11-15T01:46:53.830Z,45.73
2022-11-15T01:50:01.190Z,47.13
2022-11-15T01:52:54.532Z,45.67
2022-11-15T01:55:46.739Z,44.23
2022-11-15T01:58:42.240Z,41.37
2022-11-15T02:01:36.483Z,44.33
2022-11-15T02:04:32.780Z,41.97
2022-11-15T02:07:27.461Z,47.17
2022-11-15T02:10:23.726Z,43.40
2022-11-15T02:13:17.372Z,44.77
2022-11-15T02:16:20.318Z,51.20
2022-11-15T02:19:30.994Z,48.93
2022-11-15T02:22:41.407Z,61.00
2022-11-15T02:25:53.672Z,52.90
2022-11-15T02:29:00.603Z,52.73
2022-11-15T02:32:01.919Z,64.50
2022-11-15T02:35:01.401Z,52.07
2022-11-15T02:38:02.556Z,61.30
2022-11-15T02:41:02.757Z,55.67
2022-11-15T02:44:00.460Z,55.93
2022-11-15T02:47:18.769Z,57.50
2022-11-15T02:50:15.928Z,55.93
2022-11-15T02:53:08.618Z,56.90
2022-11-15T02:56:02.919Z,60.27
2022-11-15T02:59:30.369Z,57.57
2022-11-15T03:02:40.484Z,57.83
2022-11-15T03:05:40.767Z,57.03
2022-11-15T03:08:37.482Z,62.67
2022-11-15T03:11:30.829Z,69.10
2022-11-15T03:14:30.197Z,67.43
2022-11-15T03:17:29.228Z,58.80
2022-11-15T03:20:34.464Z,59.73
2022-11-15T03:23:28.554Z,61.23
2022-11-15T03:26:23.278Z,59.23
2022-11-15T03:29:19.170Z,59.73
2022-11-15T03:32:17.518Z,63.30
2022-11-15T03:35:14.357Z,63.43
2022-11-15T03:38:14.816Z,65.43
2022-11-15T03:41:11.314Z,64.77
2022-11-15T03:44:10.366Z,62.00
2022-11-15T03:47:09.133Z,63.07
2022-11-15T03:50:06.385Z,60.67
2022-11-15T03:53:01.162Z,66.07
2022-11-15T03:55:53.540Z,71.47
2022-11-15T03:58:45.819Z,68.10
2022-11-15T04:01:37.754Z,65.33
2022-11-15T04:04:31.089Z,64.33
2022-11-15T04:07:23.442Z,66.60
2022-11-15T04:10:22.155Z,67.73
2022-11-15T04:13:13.956Z,67.10
2022-11-15T04:16:09.542Z,69.60
2022-11-15T04:19:14.551Z,76.93
2022-11-15T04:22:24.623Z,71.13
2022-11-15T04:25:23.154Z,78.07
2022-11-15T04:28:16.434Z,74.13
2022-11-15T04:31:09.997Z,80.93
2022-11-15T04:34:10.077Z,86.97
2022-11-15T04:37:18.722Z,80.17
2022-11-15T04:40:11.650Z,75.90
2022-11-15T04:43:05.908Z,93.20
2022-11-15T04:45:58.165Z,85.63
2022-11-15T04:48:54.150Z,81.43
2022-11-15T04:51:50.274Z,83.37
2022-11-15T04:54:44.556Z,81.17
2022-11-15T04:57:36.902Z,87.63
2022-11-15T05:00:32.274Z,86.80
2022-11-15T05:03:40.453Z,84.10
2022-11-15T05:06:34.724Z,76.83
2022-11-15T05:09:27.261Z,81.80
2022-11-15T05:12:19.843Z,83.00
2022-11-15T05:15:12.877Z,86.10
2022-11-15T05:18:07.558Z,95.47
2022-11-15T05:20:59.654Z,88.83
2022-11-15T05:23:52.426Z,100.40
2022-11-15T05:26:44.838Z,102.07
2022-11-15T05:29:37.715Z,102.87
2022-11-15T05:32:30.692Z,103.50
2022-11-15T05:35:30.825Z,101.83
2022-11-15T05:38:24.590Z,99.30
2022-11-15T05:41:18.700Z,96.83
2022-11-15T05:44:14.747Z,97.47
2022-11-15T05:47:08.853Z,104.73
2022-11-15T05:50:02.850Z,109.67
2022-11-15T05:53:04.639Z,105.77
2022-11-15T05:55:58.860Z,109.70
2022-11-15T05:58:54.407Z,106.80
2022-11-15T06:01:49.971Z,106.20
2022-11-15T06:04:42.382Z,101.50
2022-11-15T06:07:36.516Z,111.13
2022-11-15T06:10:30.925Z,108.70
2022-11-15T06:13:23.131Z,111.67
2022-11-15T06:16:15.567Z,116.13
2022-11-15T06:19:08.397Z,109.23
2022-11-15T06:22:00.665Z,108.43
2022-11-15T06:24:53.323Z,111.77
2022-11-15T06:27:56.131Z,103.33
2022-11-15T06:30:53.060Z,107.03
2022-11-15T06:33:46.098Z,109.10
2022-11-15T06:36:40.986Z,106.40
2022-11-15T06:39:33.254Z,113.67
2022-11-15T06:42:25.935Z,103.07
2022-11-15T06:45:19.856Z,116.43
2022-11-15T06:48:15.921Z,103.27
2022-11-15T06:51:08.844Z,107.20
2022-11-15T06:54:02.333Z,113.90
2022-11-15T06:56:54.877Z,109.17
2022-11-15T06:59:46.793Z,113.47
2022-11-15T07:02:40.667Z,103.30
2022-11-15T07:05:34.428Z,103.00
2022-11-15T07:08:28.213Z,106.03
2022-11-15T07:11:20.470Z,111.37
2022-11-15T07:14:12.984Z,114.10
2022-11-15T07:17:07.575Z,103.33
2022-11-15T07:20:01.638Z,101.93
2022-11-15T07:22:54.385Z,106.53
2022-11-15T07:25:46.401Z,118.03
2022-11-15T07:28:39.735Z,112.17
2022-11-15T07:31:32.562Z,117.97
2022-11-15T07:34:26.372Z,110.30
2022-11-15T07:37:20.474Z,109.43
2022-11-15T07:40:13.808Z,115.90
2022-11-15T07:43:11.385Z,120.00
2022-11-15T07:46:03.631Z,111.87
2022-11-15T07:48:55.488Z,114.43
2022-11-15T07:51:47.627Z,112.03
2022-11-15T07:54:41.906Z,115.33
2022-11-15T07:57:34.789Z,117.97
2022-11-15T08:00:27.248Z,116.80
2022-11-15T08:03:21.840Z,111.53
2022-11-15T08:06:14.536Z,122.13
2022-11-15T08:09:06.835Z,116.03
2022-11-15T08:12:02.265Z,111.10
2022-11-15T08:14:54.714Z,111.93
2022-11-15T08:17:47.254Z,115.33
2022-11-15T08:20:39.818Z,109.23
2022-11-15T08:23:32.743Z,115.10
2022-11-15T08:26:25.505Z,110.50
2022-11-15T08:29:20.358Z,106.00
2022-11-15T08:32:12.522Z,114.60
2022-11-15T08:35:06.408Z,114.77
2022-11-15T08:38:00.354Z,111.40
2022-11-15T08:40:52.852Z,113.43
2022-11-15T08:44:02.526Z,111.43
2022-11-15T08:46:56.736Z,113.13
2022-11-15T08:49:48.931Z,118.27
2022-11-15T08:52:42.461Z,105.10
2022-11-15T08:55:35.325Z,116.03
2022-11-15T08:58:28.106Z,118.33
2022-11-15T09:01:23.116Z,111.40
2022-11-15T09:04:19.133Z,112.40
2022-11-15T09:07:11.743Z,107.63
2022-11-15T09:10:05.086Z,101.43
2022-11-15T09:12:57.798Z,96.20
2022-11-15T09:15:50.240Z,88.37
2022-11-15T09:18:42.415Z,83.33
2022-11-15T09:21:36.346Z,87.27
2022-11-15T09:24:29.542Z,88.40
2022-11-15T09:27:22.300Z,84.00
2022-11-15T09:30:15.524Z,85.57
2022-11-15T09:33:14.617Z,85.10
2022-11-15T09:36:12.389Z,83.77
2022-11-15T09:39:09.972Z,87.10
2022-11-15T09:42:31.432Z,88.10
2022-11-15T09:45:29.060Z,78.97
2022-11-15T09:48:47.698Z,79.70
2022-11-15T09:51:49.169Z,82.23
2022-11-15T09:54:53.232Z,85.20
2022-11-15T09:57:38.741Z,81.57
2022-11-15T10:03:18.778Z,84.77
2022-11-15T10:05:55.729Z,84.67
2022-11-15T10:08:53.480Z,80.50
2022-11-15T10:11:39.992Z,86.37
2022-11-15T10:14:19.073Z,93.40
2022-11-15T10:17:36.628Z,80.70
2022-11-15T10:20:22.323Z,77.60
2022-11-15T10:22:59.102Z,88.07
2022-11-15T10:25:35.126Z,82.07
2022-11-15T10:28:19.913Z,81.33
2022-11-15T10:30:55.954Z,77.13
2022-11-15T10:33:41.006Z,78.17
2022-11-15T10:36:27.283Z,79.20
2022-11-15T10:39:05.731Z,79.23
2022-11-15T10:41:44.813Z,74.00
2022-11-15T10:44:27.697Z,73.23
2022-11-15T10:47:39.755Z,81.17
2022-11-15T10:50:37.242Z,78.80
2022-11-15T10:53:24.203Z,72.13
2022-11-15T10:56:02.300Z,68.80
2022-11-15T10:58:42.493Z,83.10
2022-11-15T11:01:22.990Z,73.17
2022-11-15T11:04:09.284Z,73.77
2022-11-15T11:06:54.825Z,69.20
2022-11-15T11:09:38.458Z,75.00
2022-11-15T11:12:17.131Z,73.50
2022-11-15T11:14:51.330Z,71.40
2022-11-15T11:17:34.990Z,76.70
2022-11-15T11:20:16.155Z,75.00
2022-11-15T11:23:04.834Z,70.77
2022-11-15T11:25:45.737Z,70.10
2022-11-15T11:28:36.142Z,68.47
2022-11-15T11:31:29.789Z,63.07
2022-11-15T11:34:18.477Z,73.00
2022-11-15T11:37:04.747Z,67.20
2022-11-15T11:39:49.241Z,68.40
2022-11-15T11:42:44.645Z,69.80
2022-11-15T11:45:28.419Z,74.03
2022-11-15T11:48:10.020Z,73.50
2022-11-15T11:50:50.406Z,69.70
2022-11-15T11:53:35.160Z,68.13
2022-11-15T11:56:19.999Z,68.20
2022-11-15T11:58:56.530Z,71.80
2022-11-15T12:01:34.932Z,68.73
2022-11-15T12:04:17.506Z,72.30
2022-11-15T12:07:04.387Z,73.77
2022-11-15T12:09:44.711Z,67.83
2022-11-15T12:12:25.818Z,72.57
2022-11-15T12:15:03.248Z,65.43
2022-11-15T12:17:38.990Z,68.23
2022-11-15T12:20:23.196Z,69.37
2022-11-15T12:23:02.738Z,67.87
2022-11-15T12:25:44.528Z,74.67
2022-11-15T12:28:25.104Z,69.63
2022-11-15T12:31:06.919Z,65.13
2022-11-15T12:33:45.365Z,63.73
2022-11-15T12:36:39.690Z,67.67
2022-11-15T12:39:18.381Z,66.07
2022-11-15T12:42:27.471Z,66.73
2022-11-15T12:45:05.227Z,71.70
2022-11-15T12:47:42.782Z,67.90
2022-11-15T12:50:20.902Z,68.10
2022-11-15T12:53:42.338Z,66.30
2022-11-15T12:56:28.828Z,69.20
2022-11-15T12:59:04.899Z,63.70
2022-11-15T13:02:05.776Z,65.30
2022-11-15T13:04:40.305Z,65.13
2022-11-15T13:07:34.700Z,58.67
2022-11-15T13:10:37.267Z,55.43
2022-11-15T13:13:17.064Z,61.40
2022-11-15T13:16:02.562Z,60.53
2022-11-15T13:18:40.391Z,61.13
2022-11-15T13:21:45.698Z,63.17
2022-11-15T13:24:21.936Z,58.43
2022-11-15T13:26:57.169Z,62.73
2022-11-15T13:29:34.771Z,60.53
2022-11-15T13:32:11.254Z,62.63
2022-11-15T13:34:51.964Z,64.90
2022-11-15T13:37:38.780Z,70.10
2022-11-15T13:40:35.304Z,66.53
2022-11-15T13:43:33.249Z,66.80
2022-11-15T13:46:20.038Z,63.50
2022-11-15T13:49:00.231Z,68.90
2022-11-15T13:51:40.578Z,63.47
2022-11-15T13:54:23.160Z,67.37
2022-11-15T13:57:02.320Z,61.90
2022-11-15T13:59:44.372Z,58.80
2022-11-15T14:02:23.782Z,60.07
2022-11-15T14:05:03.216Z,59.33
2022-11-15T14:07:44.569Z,60.80
2022-11-15T14:10:42.189Z,62.50
2022-11-15T14:13:37.198Z,56.23
2022-11-15T14:16:24.963Z,59.17
2022-11-15T14:19:07.584Z,68.50
2022-11-15T14:21:43.866Z,71.17
2022-11-15T14:24:27.106Z,75.07
2022-11-15T14:27:02.797Z,74.67
2022-11-15T14:29:40.630Z,80.03
2022-11-15T14:32:21.890Z,83.47
2022-11-15T14:35:07.108Z,79.07
2022-11-15T14:37:42.895Z,83.17
2022-11-15T14:40:22.096Z,79.20
2022-11-15T14:42:57.323Z,75.50
2022-11-15T14:45:37.065Z,75.80
2022-11-15T14:48:12.187Z,75.83
2022-11-15T14:50:52.206Z,81.83
2022-11-15T14:53:27.438Z,76.23
2022-11-15T14:56:03.618Z,78.07
2022-11-15T14:58:39.112Z,67.80
2022-11-15T15:01:22.098Z,71.43
2022-11-15T15:04:01.149Z,84.80
2022-11-15T15:06:38.441Z,69.63
2022-11-15T15:09:13.834Z,73.97
2022-11-15T15:11:52.507Z,77.60
2022-11-15T15:14:30.358Z,66.37
2022-11-15T15:17:05.110Z,70.70
2022-11-15T15:19:42.812Z,70.57
2022-11-15T15:22:24.282Z,71.23
2022-11-15T15:24:59.873Z,71.03
2022-11-15T15:27:35.902Z,71.57
2022-11-15T15:30:11.227Z,63.17
2022-11-15T15:32:45.955Z,63.77
2022-11-15T15:35:22.620Z,71.63
2022-11-15T15:37:59.519Z,68.27
2022-11-15T15:40:36.109Z,72.13
2022-11-15T15:43:11.738Z,68.93
2022-11-15T15:45:47.588Z,66.70
2022-11-15T15:48:22.625Z,69.90
2022-11-15T15:50:57.327Z,70.77
2022-11-15T15:53:33.951Z,65.83
2022-11-15T15:56:10.541Z,67.80
2022-11-15T15:59:02.708Z,65.03
2022-11-15T16:01:36.956Z,72.40
2022-11-15T16:04:11.537Z,63.87
2022-11-15T16:06:52.347Z,68.93
2022-11-15T16:09:41.982Z,71.63
2022-11-15T16:12:18.827Z,72.17
2022-11-15T16:14:55.049Z,79.10
2022-11-15T16:17:35.585Z,70.70
2022-11-15T16:20:12.705Z,68.77
2022-11-15T16:22:48.869Z,67.53
2022-11-15T16:25:26.889Z,67.00
2022-11-15T16:28:03.109Z,68.13
2022-11-15T16:30:39.773Z,74.23
2022-11-15T16:33:15.017Z,75.40
2022-11-15T16:35:50.502Z,79.40
2022-11-15T16:38:25.341Z,79.13
2022-11-15T16:41:01.806Z,78.33
2022-11-15T16:43:36.806Z,69.80
2022-11-15T16:46:21.388Z,72.80
2022-11-15T16:49:00.037Z,68.77
2022-11-15T16:51:35.625Z,68.10
2022-11-15T16:54:10.370Z,75.97
2022-11-15T16:56:46.852Z,69.43
2022-11-15T16:59:22.532Z,74.73
2022-11-15T17:01:57.163Z,67.97
2022-11-15T17:04:35.310Z,78.77
2022-11-15T17:07:27.192Z,74.63
2022-11-15T17:10:02.657Z,70.80
2022-11-15T17:12:39.636Z,68.43
2022-11-15T17:15:15.814Z,73.30
2022-11-15T17:17:55.759Z,74.50
2022-11-15T17:20:32.055Z,71.73
2022-11-15T17:23:08.596Z,78.30
2022-11-15T17:25:43.850Z,71.33
2022-11-15T17:28:20.246Z,76.73
2022-11-15T17:30:54.321Z,73.93
2022-11-15T17:33:29.245Z,74.37
2022-11-15T17:36:05.539Z,73.40
2022-11-15T17:38:39.906Z,77.30
2022-11-15T17:41:19.951Z,75.57
2022-11-15T17:43:57.578Z,70.97
2022-11-15T17:46:36.072Z,71.57
2022-11-15T17:49:10.588Z,71.83
2022-11-15T17:51:49.744Z,75.47
2022-11-15T17:54:24.471Z,79.70
2022-11-15T17:56:59.433Z,69.33
2022-11-15T17:59:36.258Z,70.97
2022-11-15T18:02:11.226Z,73.50
2022-11-15T18:04:45.947Z,77.57
2022-11-15T18:07:20.299Z,82.10
2022-11-15T18:09:55.717Z,77.93
2022-11-15T18:12:29.990Z,78.33
2022-11-15T18:15:06.656Z,78.60
2022-11-15T18:17:40.976Z,73.63
2022-11-15T18:20:15.960Z,75.77
2022-11-15T18:22:50.562Z,75.60
2022-11-15T18:25:25.040Z,75.33
2022-11-15T18:27:59.263Z,74.47
2022-11-15T18:30:35.510Z,82.13
2022-11-15T18:33:09.851Z,83.77
2022-11-15T18:35:44.839Z,75.87
2022-11-15T18:38:20.088Z,84.70
2022-11-15T18:40:54.797Z,78.80
2022-11-15T18:43:29.788Z,83.50
2022-11-15T18:46:10.759Z,83.90
2022-11-15T18:48:47.042Z,83.53
2022-11-15T18:51:23.422Z,79.30
2022-11-15T18:53:59.524Z,82.17
2022-11-15T18:56:35.188Z,81.30
2022-11-15T18:59:10.213Z,78.63
2022-11-15T19:01:49.238Z,82.63
2022-11-15T19:04:25.407Z,88.97
2022-11-15T19:07:00.219Z,81.20
2022-11-15T19:09:52.832Z,85.63
2022-11-15T19:12:27.785Z,78.77
2022-11-15T19:15:07.505Z,79.67
2022-11-15T19:17:46.944Z,77.53
2022-11-15T19:20:22.455Z,80.17
2022-11-15T19:22:57.610Z,78.47
2022-11-15T19:25:31.741Z,83.40
2022-11-15T19:28:06.938Z,82.50
2022-11-15T19:30:42.003Z,80.57
2022-11-15T19:33:27.595Z,85.83
2022-11-15T19:36:06.352Z,85.03
2022-11-15T19:38:41.640Z,89.63
2022-11-15T19:41:19.161Z,89.73
2022-11-15T19:43:54.483Z,81.17
2022-11-15T19:46:29.964Z,89.37
2022-11-15T19:49:08.586Z,91.73
2022-11-15T19:51:43.874Z,86.43
2022-11-15T19:54:18.822Z,85.13
2022-11-15T19:56:53.362Z,89.70
2022-11-15T19:59:28.394Z,92.50
2022-11-15T20:02:02.832Z,93.30
2022-11-15T20:04:38.926Z,92.83
2022-11-15T20:07:13.636Z,94.97
2022-11-15T20:10:06.463Z,97.40
2022-11-15T20:12:40.602Z,98.73
2022-11-15T20:15:15.617Z,96.83
2022-11-15T20:17:49.796Z,115.13
2022-11-15T20:20:26.050Z,106.43
2022-11-15T20:23:03.444Z,104.33
2022-11-15T20:25:43.132Z,105.23
2022-11-15T20:28:21.147Z,103.33
2022-11-15T20:30:59.159Z,108.77
2022-11-15T20:33:36.583Z,106.83
2022-11-15T20:36:16.844Z,114.23
2022-11-15T20:38:55.137Z,118.83
2022-11-15T20:41:30.225Z,115.03
2022-11-15T20:44:05.205Z,115.73
2022-11-15T20:46:40.191Z,111.20
2022-11-15T20:49:17.722Z,108.53
2022-11-15T20:51:53.929Z,116.17
2022-11-15T20:54:28.106Z,109.70
2022-11-15T20:57:03.109Z,112.07
2022-11-15T20:59:38.349Z,123.87
2022-11-15T21:02:13.678Z,115.70
2022-11-15T21:04:47.902Z,112.20
2022-11-15T21:07:23.909Z,112.63
2022-11-15T21:10:13.902Z,120.57
2022-11-15T21:12:49.286Z,119.17
2022-11-15T21:15:26.671Z,121.30
2022-11-15T21:18:01.411Z,117.77
2022-11-15T21:20:36.453Z,115.20
2022-11-15T21:23:13.874Z,120.37
2022-11-15T21:25:54.103Z,116.07
2022-11-15T21:28:28.618Z,114.30
2022-11-15T21:31:05.377Z,118.73
2022-11-15T21:33:40.043Z,105.97
2022-11-15T21:36:31.462Z,112.70
2022-11-15T21:39:09.998Z,114.00
2022-11-15T21:41:44.376Z,109.13
2022-11-15T21:44:22.335Z,116.60
2022-11-15T21:46:57.262Z,118.63
2022-11-15T21:49:32.329Z,112.83
2022-11-15T21:52:06.824Z,122.93
2022-11-15T21:54:43.114Z,131.33
2022-11-15T21:57:20.407Z,121.53
2022-11-15T22:00:10.619Z,121.37
2022-11-15T22:02:44.936Z,126.73
2022-11-15T22:05:19.216Z,120.80
2022-11-15T22:08:15.055Z,113.37
2022-11-15T22:10:52.373Z,106.83
2022-11-15T22:13:27.279Z,117.67
2022-11-15T22:16:05.038Z,108.57
2022-11-15T22:18:45.042Z,117.13
2022-11-15T22:21:21.272Z,116.90
2022-11-15T22:23:56.527Z,118.17
2022-11-15T22:26:32.429Z,122.47
2022-11-15T22:29:07.380Z,123.97
2022-11-15T22:31:41.590Z,120.97
2022-11-15T22:34:19.258Z,116.53
2022-11-15T22:37:19.712Z,114.63
2022-11-15T22:39:53.550Z,110.80
2022-11-15T22:42:29.708Z,111.23
2022-11-15T22:45:04.666Z,114.60
2022-11-15T22:47:39.777Z,109.70
2022-11-15T22:50:14.743Z,119.53
2022-11-15T22:52:49.145Z,113.20
2022-11-15T22:55:23.621Z,119.17
2022-11-15T22:57:59.785Z,111.83
2022-11-15T23:00:34.813Z,116.97
2022-11-15T23:03:10.103Z,114.70
2022-11-15T23:05:44.681Z,115.87
2022-11-15T23:08:19.664Z,117.63
2022-11-15T23:11:09.796Z,124.93
2022-11-15T23:13:46.011Z,121.07
2022-11-15T23:16:27.205Z,115.37
2022-11-15T23:19:03.927Z,122.63
2022-11-15T23:21:58.370Z,115.87
2022-11-15T23:24:33.360Z,117.67
2022-11-15T23:27:10.786Z,120.77
2022-11-15T23:30:03.027Z,119.10
2022-11-15T23:32:53.614Z,118.43
2022-11-15T23:35:29.278Z,116.63
2022-11-15T23:38:04.102Z,116.07
2022-11-15T23:40:38.827Z,118.80
2022-11-15T23:43:13.360Z,123.77
2022-11-15T23:45:52.177Z,128.07
2022-11-15T23:55:29.590Z,131.43
2022-11-15T23:58:03.946Z,126.17
